sensor_id;sensor_type;location;lat;lon;timestamp;pressure;altitude;pressure_sealevel;temperature;humidity
23733;BME280;12047;53.450;-2.286;2023-09-30T00:01:22;102088.38;;;19.28;100.00
23733;BME280;12047;53.450;-2.286;2023-09-30T00:06:22;102102.13;;;18.65;100.00
23733;BME280;12047;53.450;-2.286;2023-09-30T00:11:23;102099.28;;;18.66;100.00
23733;BME280;12047;53.450;-2.286;2023-09-30T00:16:23;102099.00;;;19.03;100.00
23733;BME280;12047;53.450;-2.286;2023-09-30T00:21:24;102113.88;;;19.24;100.00
23733;BME280;12047;53.450;-2.286;2023-09-30T00:26:25;102121.13;;;18.97;100.00
23733;BME280;12047;53.450;-2.286;2023-09-30T00:31:25;102124.75;;;19.14;100.00
23733;BME280;12047;53.450;-2.286;2023-09-30T00:36:26;102122.28;;;19.21;100.00
23733;BME280;12047;53.450;-2.286;2023-09-30T00:41:26;102128.56;;;19.03;100.00
23733;BME280;12047;53.450;-2.286;2023-09-30T00:46:29;102125.91;;;18.60;100.00
23733;BME280;12047;53.450;-2.286;2023-09-30T00:51:31;102117.22;;;18.48;100.00
23733;BME280;12047;53.450;-2.286;2023-09-30T00:56:33;102102.44;;;18.44;100.00
23733;BME280;12047;53.450;-2.286;2023-09-30T01:01:34;102112.53;;;18.94;100.00
23733;BME280;12047;53.450;-2.286;2023-09-30T01:06:35;102107.88;;;18.34;100.00
23733;BME280;12047;53.450;-2.286;2023-09-30T01:11:35;102105.28;;;18.86;100.00
23733;BME280;12047;53.450;-2.286;2023-09-30T01:16:36;102103.19;;;18.72;100.00
23733;BME280;12047;53.450;-2.286;2023-09-30T01:21:37;102095.53;;;18.42;100.00
23733;BME280;12047;53.450;-2.286;2023-09-30T01:26:37;102090.25;;;18.50;100.00
23733;BME280;12047;53.450;-2.286;2023-09-30T01:31:38;102085.06;;;18.30;100.00
23733;BME280;12047;53.450;-2.286;2023-09-30T01:36:38;102085.47;;;18.44;100.00
23733;BME280;12047;53.450;-2.286;2023-09-30T01:41:40;102098.03;;;18.79;100.00
23733;BME280;12047;53.450;-2.286;2023-09-30T01:46:41;102084.00;;;18.67;100.00
23733;BME280;12047;53.450;-2.286;2023-09-30T01:51:41;102064.06;;;18.69;100.00
23733;BME280;12047;53.450;-2.286;2023-09-30T01:56:42;102069.63;;;18.58;100.00
23733;BME280;12047;53.450;-2.286;2023-09-30T02:01:42;102052.69;;;18.76;100.00
23733;BME280;12047;53.450;-2.286;2023-09-30T02:06:43;102059.44;;;18.80;100.00
23733;BME280;12047;53.450;-2.286;2023-09-30T02:11:43;102058.38;;;18.73;100.00
23733;BME280;12047;53.450;-2.286;2023-09-30T02:16:44;102040.00;;;17.98;100.00
23733;BME280;12047;53.450;-2.286;2023-09-30T02:21:44;102041.34;;;18.64;100.00
23733;BME280;12047;53.450;-2.286;2023-09-30T02:26:45;102048.69;;;18.36;100.00
23733;BME280;12047;53.450;-2.286;2023-09-30T02:31:45;102058.59;;;18.18;100.00
23733;BME280;12047;53.450;-2.286;2023-09-30T02:36:45;102070.38;;;18.43;100.00
23733;BME280;12047;53.450;-2.286;2023-09-30T02:41:46;102062.81;;;17.85;100.00
23733;BME280;12047;53.450;-2.286;2023-09-30T02:46:47;102055.00;;;18.09;100.00
23733;BME280;12047;53.450;-2.286;2023-09-30T02:51:47;102062.84;;;17.57;100.00
23733;BME280;12047;53.450;-2.286;2023-09-30T02:56:48;102058.63;;;18.00;100.00
23733;BME280;12047;53.450;-2.286;2023-09-30T03:01:48;102059.06;;;18.57;100.00
23733;BME280;12047;53.450;-2.286;2023-09-30T03:06:49;102068.69;;;18.42;100.00
23733;BME280;12047;53.450;-2.286;2023-09-30T03:11:49;102055.00;;;18.27;100.00
23733;BME280;12047;53.450;-2.286;2023-09-30T03:16:50;102059.16;;;18.21;100.00
23733;BME280;12047;53.450;-2.286;2023-09-30T03:21:51;102055.00;;;18.09;100.00
23733;BME280;12047;53.450;-2.286;2023-09-30T03:26:51;102052.88;;;17.32;100.00
23733;BME280;12047;53.450;-2.286;2023-09-30T03:31:52;102057.31;;;17.86;100.00
23733;BME280;12047;53.450;-2.286;2023-09-30T03:36:52;102071.41;;;17.43;100.00
23733;BME280;12047;53.450;-2.286;2023-09-30T03:41:55;102072.25;;;17.89;100.00
23733;BME280;12047;53.450;-2.286;2023-09-30T03:46:56;102059.47;;;18.00;100.00
23733;BME280;12047;53.450;-2.286;2023-09-30T03:51:59;102058.91;;;18.15;100.00
23733;BME280;12047;53.450;-2.286;2023-09-30T03:57:00;102074.03;;;17.80;100.00
23733;BME280;12047;53.450;-2.286;2023-09-30T04:02:01;102058.41;;;17.76;100.00
23733;BME280;12047;53.450;-2.286;2023-09-30T04:07:01;102071.41;;;17.88;100.00
23733;BME280;12047;53.450;-2.286;2023-09-30T04:12:05;102079.03;;;17.38;100.00
23733;BME280;12047;53.450;-2.286;2023-09-30T04:17:06;102079.44;;;17.16;100.00
23733;BME280;12047;53.450;-2.286;2023-09-30T04:22:06;102087.41;;;16.88;100.00
23733;BME280;12047;53.450;-2.286;2023-09-30T04:27:07;102068.09;;;16.94;100.00
23733;BME280;12047;53.450;-2.286;2023-09-30T04:32:07;102071.41;;;17.43;100.00
23733;BME280;12047;53.450;-2.286;2023-09-30T04:37:08;102062.00;;;16.55;100.00
23733;BME280;12047;53.450;-2.286;2023-09-30T04:42:09;102060.22;;;17.30;100.00
23733;BME280;12047;53.450;-2.286;2023-09-30T04:47:11;102023.31;;;16.30;100.00
23733;BME280;12047;53.450;-2.286;2023-09-30T04:52:11;102035.94;;;16.67;100.00
23733;BME280;12047;53.450;-2.286;2023-09-30T04:57:12;102038.13;;;17.63;100.00
23733;BME280;12047;53.450;-2.286;2023-09-30T05:02:12;102036.25;;;17.91;100.00
23733;BME280;12047;53.450;-2.286;2023-09-30T05:07:15;102045.00;;;17.76;100.00
23733;BME280;12047;53.450;-2.286;2023-09-30T05:12:16;102066.84;;;16.32;100.00
23733;BME280;12047;53.450;-2.286;2023-09-30T05:17:16;102078.19;;;17.38;100.00
23733;BME280;12047;53.450;-2.286;2023-09-30T05:22:17;102068.31;;;16.74;100.00
23733;BME280;12047;53.450;-2.286;2023-09-30T05:27:22;102045.25;;;16.53;100.00
23733;BME280;12047;53.450;-2.286;2023-09-30T05:32:23;102045.84;;;16.28;100.00
23733;BME280;12047;53.450;-2.286;2023-09-30T05:37:25;102047.50;;;17.05;100.00
23733;BME280;12047;53.450;-2.286;2023-09-30T05:42:26;102042.81;;;17.34;100.00
23733;BME280;12047;53.450;-2.286;2023-09-30T05:47:27;102041.78;;;17.45;100.00
23733;BME280;12047;53.450;-2.286;2023-09-30T05:52:27;102040.50;;;16.84;100.00
23733;BME280;12047;53.450;-2.286;2023-09-30T05:57:28;102025.09;;;16.49;100.00
23733;BME280;12047;53.450;-2.286;2023-09-30T06:02:29;102033.66;;;16.72;100.00
23733;BME280;12047;53.450;-2.286;2023-09-30T06:07:30;102024.72;;;16.91;100.00
23733;BME280;12047;53.450;-2.286;2023-09-30T06:12:30;102038.75;;;16.56;100.00
23733;BME280;12047;53.450;-2.286;2023-09-30T06:17:31;102057.81;;;17.27;100.00
23733;BME280;12047;53.450;-2.286;2023-09-30T06:22:33;102065.00;;;17.99;100.00
23733;BME280;12047;53.450;-2.286;2023-09-30T06:27:34;102078.16;;;18.10;100.00
23733;BME280;12047;53.450;-2.286;2023-09-30T06:32:34;102098.91;;;18.08;100.00
23733;BME280;12047;53.450;-2.286;2023-09-30T06:37:42;102104.28;;;17.73;100.00
23733;BME280;12047;53.450;-2.286;2023-09-30T06:42:43;102099.88;;;17.44;100.00
23733;BME280;12047;53.450;-2.286;2023-09-30T06:47:43;102103.38;;;17.17;100.00
23733;BME280;12047;53.450;-2.286;2023-09-30T06:52:45;102106.13;;;17.35;100.00
23733;BME280;12047;53.450;-2.286;2023-09-30T06:57:47;102102.94;;;18.04;100.00
23733;BME280;12047;53.450;-2.286;2023-09-30T07:02:48;102099.97;;;17.25;100.00
23733;BME280;12047;53.450;-2.286;2023-09-30T07:07:49;102105.41;;;17.70;100.00
23733;BME280;12047;53.450;-2.286;2023-09-30T07:12:49;102099.56;;;17.57;100.00
23733;BME280;12047;53.450;-2.286;2023-09-30T07:17:50;102095.31;;;17.54;100.00
23733;BME280;12047;53.450;-2.286;2023-09-30T07:22:53;102100.28;;;18.65;100.00
23733;BME280;12047;53.450;-2.286;2023-09-30T07:27:53;102100.19;;;17.68;100.00
23733;BME280;12047;53.450;-2.286;2023-09-30T07:32:54;102107.66;;;18.28;100.00
23733;BME280;12047;53.450;-2.286;2023-09-30T07:37:57;102106.50;;;19.26;100.00
23733;BME280;12047;53.450;-2.286;2023-09-30T07:42:58;102117.25;;;18.13;100.00
23733;BME280;12047;53.450;-2.286;2023-09-30T07:47:58;102118.22;;;18.65;100.00
23733;BME280;12047;53.450;-2.286;2023-09-30T07:52:59;102109.53;;;19.31;100.00
23733;BME280;12047;53.450;-2.286;2023-09-30T07:58:03;102104.03;;;19.41;100.00
23733;BME280;12047;53.450;-2.286;2023-09-30T08:03:08;102101.38;;;19.99;100.00
23733;BME280;12047;53.450;-2.286;2023-09-30T08:08:12;102100.66;;;19.81;100.00
23733;BME280;12047;53.450;-2.286;2023-09-30T08:13:15;102096.81;;;19.91;100.00
23733;BME280;12047;53.450;-2.286;2023-09-30T08:18:20;102110.69;;;19.62;100.00
23733;BME280;12047;53.450;-2.286;2023-09-30T08:23:21;102091.94;;;19.79;100.00
23733;BME280;12047;53.450;-2.286;2023-09-30T08:28:24;102087.41;;;19.79;100.00
23733;BME280;12047;53.450;-2.286;2023-09-30T08:33:29;102080.69;;;19.41;100.00
23733;BME280;12047;53.450;-2.286;2023-09-30T08:38:38;102091.13;;;20.11;100.00
23733;BME280;12047;53.450;-2.286;2023-09-30T08:43:40;102096.00;;;20.07;100.00
23733;BME280;12047;53.450;-2.286;2023-09-30T08:48:44;102081.56;;;20.16;100.00
23733;BME280;12047;53.450;-2.286;2023-09-30T08:53:47;102073.56;;;19.66;100.00
23733;BME280;12047;53.450;-2.286;2023-09-30T08:58:50;102072.28;;;19.94;100.00
23733;BME280;12047;53.450;-2.286;2023-09-30T09:03:54;102083.75;;;20.37;100.00
23733;BME280;12047;53.450;-2.286;2023-09-30T09:09:17;102100.25;;;20.42;100.00
23733;BME280;12047;53.450;-2.286;2023-09-30T09:20:00;102103.84;;;21.06;100.00
23733;BME280;12047;53.450;-2.286;2023-09-30T09:25:04;102113.78;;;21.05;100.00
23733;BME280;12047;53.450;-2.286;2023-09-30T09:30:24;102116.53;;;20.89;100.00
23733;BME280;12047;53.450;-2.286;2023-09-30T09:35:25;102119.44;;;21.35;100.00
23733;BME280;12047;53.450;-2.286;2023-09-30T09:40:30;102099.44;;;21.13;100.00
23733;BME280;12047;53.450;-2.286;2023-09-30T09:45:35;102102.94;;;21.38;100.00
23733;BME280;12047;53.450;-2.286;2023-09-30T09:50:37;102096.84;;;21.44;100.00
23733;BME280;12047;53.450;-2.286;2023-09-30T09:55:39;102085.94;;;20.66;100.00
23733;BME280;12047;53.450;-2.286;2023-09-30T10:00:42;102092.72;;;21.09;100.00
23733;BME280;12047;53.450;-2.286;2023-09-30T10:05:43;102090.97;;;20.61;100.00
23733;BME280;12047;53.450;-2.286;2023-09-30T10:10:44;102093.94;;;20.98;100.00
23733;BME280;12047;53.450;-2.286;2023-09-30T10:15:45;102086.25;;;20.63;100.00
23733;BME280;12047;53.450;-2.286;2023-09-30T10:20:46;102077.50;;;20.77;100.00
23733;BME280;12047;53.450;-2.286;2023-09-30T10:25:49;102068.28;;;20.47;100.00
23733;BME280;12047;53.450;-2.286;2023-09-30T10:31:13;102063.38;;;20.75;100.00
23733;BME280;12047;53.450;-2.286;2023-09-30T10:36:28;102057.19;;;20.50;100.00
23733;BME280;12047;53.450;-2.286;2023-09-30T10:46:39;102044.00;;;21.19;100.00
23733;BME280;12047;53.450;-2.286;2023-09-30T10:51:43;102025.38;;;20.46;100.00
23733;BME280;12047;53.450;-2.286;2023-09-30T10:56:48;102026.84;;;20.73;100.00
23733;BME280;12047;53.450;-2.286;2023-09-30T11:01:49;102016.25;;;21.10;100.00
23733;BME280;12047;53.450;-2.286;2023-09-30T11:06:50;102000.25;;;21.70;100.00
23733;BME280;12047;53.450;-2.286;2023-09-30T11:11:52;102015.75;;;20.59;100.00
23733;BME280;12047;53.450;-2.286;2023-09-30T11:16:59;102002.66;;;21.65;100.00
23733;BME280;12047;53.450;-2.286;2023-09-30T11:22:01;102007.19;;;21.88;100.00
23733;BME280;12047;53.450;-2.286;2023-09-30T11:27:01;101993.00;;;21.71;100.00
23733;BME280;12047;53.450;-2.286;2023-09-30T11:32:02;101995.13;;;22.21;100.00
23733;BME280;12047;53.450;-2.286;2023-09-30T11:37:03;102004.69;;;22.09;100.00
23733;BME280;12047;53.450;-2.286;2023-09-30T11:42:14;102006.66;;;22.15;100.00
23733;BME280;12047;53.450;-2.286;2023-09-30T11:47:28;101990.88;;;22.42;100.00
23733;BME280;12047;53.450;-2.286;2023-09-30T11:52:28;101998.63;;;22.89;100.00
23733;BME280;12047;53.450;-2.286;2023-09-30T11:57:30;102000.09;;;23.21;100.00
23733;BME280;12047;53.450;-2.286;2023-09-30T12:02:31;101983.41;;;22.58;100.00
23733;BME280;12047;53.450;-2.286;2023-09-30T12:07:34;101983.25;;;22.45;100.00
23733;BME280;12047;53.450;-2.286;2023-09-30T12:12:35;101985.97;;;22.08;100.00
23733;BME280;12047;53.450;-2.286;2023-09-30T12:17:37;101976.38;;;21.59;100.00
23733;BME280;12047;53.450;-2.286;2023-09-30T12:22:40;101969.69;;;22.01;100.00
23733;BME280;12047;53.450;-2.286;2023-09-30T12:27:40;101967.81;;;21.56;100.00
23733;BME280;12047;53.450;-2.286;2023-09-30T12:32:41;101964.56;;;21.83;100.00
23733;BME280;12047;53.450;-2.286;2023-09-30T12:37:41;101968.47;;;21.58;100.00
23733;BME280;12047;53.450;-2.286;2023-09-30T12:42:44;101959.19;;;22.21;100.00
23733;BME280;12047;53.450;-2.286;2023-09-30T12:47:45;101958.09;;;22.59;100.00
23733;BME280;12047;53.450;-2.286;2023-09-30T12:52:47;101954.41;;;22.08;100.00
23733;BME280;12047;53.450;-2.286;2023-09-30T12:57:47;101940.38;;;22.13;100.00
23733;BME280;12047;53.450;-2.286;2023-09-30T13:02:48;101928.72;;;21.75;100.00
23733;BME280;12047;53.450;-2.286;2023-09-30T13:07:49;101925.03;;;21.76;100.00
23733;BME280;12047;53.450;-2.286;2023-09-30T13:12:49;101921.59;;;22.19;100.00
23733;BME280;12047;53.450;-2.286;2023-09-30T13:17:50;101921.56;;;21.44;100.00
23733;BME280;12047;53.450;-2.286;2023-09-30T13:22:50;101916.81;;;21.46;100.00
23733;BME280;12047;53.450;-2.286;2023-09-30T13:27:51;101911.66;;;21.59;100.00
23733;BME280;12047;53.450;-2.286;2023-09-30T13:32:51;101923.25;;;21.14;100.00
23733;BME280;12047;53.450;-2.286;2023-09-30T13:37:52;101921.25;;;20.22;100.00
23733;BME280;12047;53.450;-2.286;2023-09-30T13:42:52;101917.50;;;20.31;100.00
23733;BME280;12047;53.450;-2.286;2023-09-30T13:47:56;101926.09;;;20.43;100.00
23733;BME280;12047;53.450;-2.286;2023-09-30T13:52:56;101946.88;;;20.65;100.00
23733;BME280;12047;53.450;-2.286;2023-09-30T13:57:58;101934.38;;;20.17;100.00
23733;BME280;12047;53.450;-2.286;2023-09-30T14:03:00;101930.22;;;19.65;100.00
23733;BME280;12047;53.450;-2.286;2023-09-30T14:08:00;101933.41;;;19.53;100.00
23733;BME280;12047;53.450;-2.286;2023-09-30T14:13:02;101931.69;;;19.44;100.00
23733;BME280;12047;53.450;-2.286;2023-09-30T14:18:04;101934.22;;;19.45;100.00
23733;BME280;12047;53.450;-2.286;2023-09-30T14:23:04;101933.16;;;19.22;100.00
23733;BME280;12047;53.450;-2.286;2023-09-30T14:28:05;101913.94;;;18.50;100.00
23733;BME280;12047;53.450;-2.286;2023-09-30T14:33:06;101908.50;;;19.26;100.00
23733;BME280;12047;53.450;-2.286;2023-09-30T14:38:06;101900.63;;;19.65;100.00
23733;BME280;12047;53.450;-2.286;2023-09-30T14:43:08;101898.28;;;19.79;100.00
23733;BME280;12047;53.450;-2.286;2023-09-30T14:48:10;101888.06;;;20.29;100.00
23733;BME280;12047;53.450;-2.286;2023-09-30T14:53:10;101872.88;;;19.97;100.00
23733;BME280;12047;53.450;-2.286;2023-09-30T14:58:11;101867.84;;;19.86;100.00
23733;BME280;12047;53.450;-2.286;2023-09-30T15:03:14;101855.25;;;19.79;100.00
23733;BME280;12047;53.450;-2.286;2023-09-30T15:08:16;101829.00;;;19.08;100.00
23733;BME280;12047;53.450;-2.286;2023-09-30T15:13:17;101822.63;;;18.92;100.00
23733;BME280;12047;53.450;-2.286;2023-09-30T15:18:18;101789.13;;;18.12;100.00
23733;BME280;12047;53.450;-2.286;2023-09-30T15:23:18;101785.03;;;17.66;100.00
23733;BME280;12047;53.450;-2.286;2023-09-30T15:28:19;101776.03;;;18.01;100.00
23733;BME280;12047;53.450;-2.286;2023-09-30T15:33:19;101764.75;;;17.20;100.00
23733;BME280;12047;53.450;-2.286;2023-09-30T15:38:21;101757.97;;;17.77;100.00
23733;BME280;12047;53.450;-2.286;2023-09-30T15:43:28;101725.34;;;17.56;100.00
23733;BME280;12047;53.450;-2.286;2023-09-30T15:48:29;101703.75;;;16.88;100.00
23733;BME280;12047;53.450;-2.286;2023-09-30T15:53:30;101704.50;;;16.98;100.00
23733;BME280;12047;53.450;-2.286;2023-09-30T15:58:34;101706.16;;;16.73;100.00
23733;BME280;12047;53.450;-2.286;2023-09-30T16:03:34;101707.06;;;16.82;100.00
23733;BME280;12047;53.450;-2.286;2023-09-30T16:08:35;101699.69;;;17.02;100.00
23733;BME280;12047;53.450;-2.286;2023-09-30T16:13:35;101685.88;;;17.14;100.00
23733;BME280;12047;53.450;-2.286;2023-09-30T16:18:36;101681.28;;;17.32;100.00
23733;BME280;12047;53.450;-2.286;2023-09-30T16:23:36;101688.91;;;16.93;100.00
23733;BME280;12047;53.450;-2.286;2023-09-30T16:28:37;101672.75;;;17.29;100.00
23733;BME280;12047;53.450;-2.286;2023-09-30T16:33:37;101662.97;;;17.20;100.00
23733;BME280;12047;53.450;-2.286;2023-09-30T16:38:38;101660.22;;;17.04;100.00
23733;BME280;12047;53.450;-2.286;2023-09-30T16:43:38;101648.97;;;17.00;100.00
23733;BME280;12047;53.450;-2.286;2023-09-30T16:48:39;101643.34;;;17.11;100.00
23733;BME280;12047;53.450;-2.286;2023-09-30T16:53:40;101642.03;;;16.89;100.00
23733;BME280;12047;53.450;-2.286;2023-09-30T16:58:40;101633.47;;;16.86;100.00
23733;BME280;12047;53.450;-2.286;2023-09-30T17:03:42;101624.59;;;16.85;100.00
23733;BME280;12047;53.450;-2.286;2023-09-30T17:08:43;101619.06;;;17.13;100.00
23733;BME280;12047;53.450;-2.286;2023-09-30T17:13:43;101625.13;;;17.15;100.00
23733;BME280;12047;53.450;-2.286;2023-09-30T17:18:44;101615.03;;;17.09;100.00
23733;BME280;12047;53.450;-2.286;2023-09-30T17:23:44;101622.88;;;17.28;100.00
23733;BME280;12047;53.450;-2.286;2023-09-30T17:28:45;101615.38;;;17.40;100.00
23733;BME280;12047;53.450;-2.286;2023-09-30T17:33:45;101609.25;;;17.21;100.00
23733;BME280;12047;53.450;-2.286;2023-09-30T17:38:46;101601.28;;;17.38;100.00
23733;BME280;12047;53.450;-2.286;2023-09-30T17:43:48;101597.81;;;17.45;100.00
23733;BME280;12047;53.450;-2.286;2023-09-30T17:48:49;101595.50;;;17.50;100.00
23733;BME280;12047;53.450;-2.286;2023-09-30T17:53:50;101588.50;;;18.40;100.00
23733;BME280;12047;53.450;-2.286;2023-09-30T17:58:51;101576.84;;;17.83;100.00
23733;BME280;12047;53.450;-2.286;2023-09-30T18:03:53;101579.94;;;18.28;100.00
23733;BME280;12047;53.450;-2.286;2023-09-30T18:08:53;101580.47;;;18.64;100.00
23733;BME280;12047;53.450;-2.286;2023-09-30T18:13:54;101582.44;;;18.14;100.00
23733;BME280;12047;53.450;-2.286;2023-09-30T18:18:55;101576.16;;;19.11;100.00
23733;BME280;12047;53.450;-2.286;2023-09-30T18:23:56;101569.09;;;19.18;100.00
23733;BME280;12047;53.450;-2.286;2023-09-30T18:28:56;101570.22;;;18.60;100.00
23733;BME280;12047;53.450;-2.286;2023-09-30T18:33:57;101563.47;;;18.96;100.00
23733;BME280;12047;53.450;-2.286;2023-09-30T18:38:59;101565.97;;;19.45;100.00
23733;BME280;12047;53.450;-2.286;2023-09-30T18:43:59;101554.66;;;19.19;100.00
23733;BME280;12047;53.450;-2.286;2023-09-30T18:48:59;101555.63;;;19.26;100.00
23733;BME280;12047;53.450;-2.286;2023-09-30T18:54:01;101544.72;;;19.27;100.00
23733;BME280;12047;53.450;-2.286;2023-09-30T18:59:06;101534.41;;;19.39;100.00
23733;BME280;12047;53.450;-2.286;2023-09-30T19:04:07;101531.56;;;19.72;100.00
23733;BME280;12047;53.450;-2.286;2023-09-30T19:09:08;101518.03;;;19.57;100.00
23733;BME280;12047;53.450;-2.286;2023-09-30T19:14:09;101501.94;;;19.49;100.00
23733;BME280;12047;53.450;-2.286;2023-09-30T19:19:13;101496.59;;;19.41;100.00
23733;BME280;12047;53.450;-2.286;2023-09-30T19:24:13;101481.97;;;19.51;100.00
23733;BME280;12047;53.450;-2.286;2023-09-30T19:29:14;101510.75;;;19.65;100.00
23733;BME280;12047;53.450;-2.286;2023-09-30T19:34:15;101489.59;;;19.62;100.00
23733;BME280;12047;53.450;-2.286;2023-09-30T19:39:15;101486.16;;;19.99;100.00
23733;BME280;12047;53.450;-2.286;2023-09-30T19:44:17;101465.59;;;19.84;100.00
23733;BME280;12047;53.450;-2.286;2023-09-30T19:49:17;101470.25;;;19.90;100.00
23733;BME280;12047;53.450;-2.286;2023-09-30T19:54:18;101465.81;;;19.97;100.00
23733;BME280;12047;53.450;-2.286;2023-09-30T19:59:18;101471.88;;;19.99;100.00
23733;BME280;12047;53.450;-2.286;2023-09-30T20:04:19;101466.47;;;19.99;100.00
23733;BME280;12047;53.450;-2.286;2023-09-30T20:09:20;101453.44;;;19.88;100.00
23733;BME280;12047;53.450;-2.286;2023-09-30T20:14:26;101448.38;;;19.93;100.00
23733;BME280;12047;53.450;-2.286;2023-09-30T20:19:26;101456.63;;;19.91;100.00
23733;BME280;12047;53.450;-2.286;2023-09-30T20:24:28;101456.81;;;19.90;100.00
23733;BME280;12047;53.450;-2.286;2023-09-30T20:29:30;101451.63;;;19.65;100.00
23733;BME280;12047;53.450;-2.286;2023-09-30T20:34:30;101429.38;;;19.94;100.00
23733;BME280;12047;53.450;-2.286;2023-09-30T20:39:31;101431.22;;;19.94;100.00
23733;BME280;12047;53.450;-2.286;2023-09-30T20:44:32;101422.25;;;20.16;100.00
23733;BME280;12047;53.450;-2.286;2023-09-30T20:49:34;101399.78;;;20.09;100.00
23733;BME280;12047;53.450;-2.286;2023-09-30T20:54:37;101410.00;;;19.99;100.00
23733;BME280;12047;53.450;-2.286;2023-09-30T20:59:37;101438.28;;;19.72;100.00
23733;BME280;12047;53.450;-2.286;2023-09-30T21:04:39;101406.06;;;19.87;100.00
23733;BME280;12047;53.450;-2.286;2023-09-30T21:09:41;101389.34;;;19.77;100.00
23733;BME280;12047;53.450;-2.286;2023-09-30T21:14:44;101381.06;;;20.01;100.00
23733;BME280;12047;53.450;-2.286;2023-09-30T21:19:47;101382.34;;;20.05;100.00
23733;BME280;12047;53.450;-2.286;2023-09-30T21:24:48;101377.34;;;19.64;100.00
23733;BME280;12047;53.450;-2.286;2023-09-30T21:29:48;101370.28;;;20.30;100.00
23733;BME280;12047;53.450;-2.286;2023-09-30T21:34:49;101367.97;;;19.98;100.00
23733;BME280;12047;53.450;-2.286;2023-09-30T21:39:49;101370.22;;;20.24;100.00
23733;BME280;12047;53.450;-2.286;2023-09-30T21:44:50;101376.91;;;20.28;100.00
23733;BME280;12047;53.450;-2.286;2023-09-30T21:49:51;101364.28;;;20.14;100.00
23733;BME280;12047;53.450;-2.286;2023-09-30T21:54:52;101368.31;;;20.83;100.00
23733;BME280;12047;53.450;-2.286;2023-09-30T21:59:52;101383.31;;;20.71;100.00
23733;BME280;12047;53.450;-2.286;2023-09-30T22:04:53;101376.91;;;20.28;100.00
23733;BME280;12047;53.450;-2.286;2023-09-30T22:09:55;101373.28;;;20.35;100.00
23733;BME280;12047;53.450;-2.286;2023-09-30T22:14:56;101372.34;;;20.14;100.00
23733;BME280;12047;53.450;-2.286;2023-09-30T22:19:56;101366.34;;;20.41;100.00
23733;BME280;12047;53.450;-2.286;2023-09-30T22:25:00;101373.78;;;20.39;100.00
23733;BME280;12047;53.450;-2.286;2023-09-30T22:30:00;101374.16;;;20.51;100.00
23733;BME280;12047;53.450;-2.286;2023-09-30T22:35:01;101375.50;;;20.61;100.00
23733;BME280;12047;53.450;-2.286;2023-09-30T22:40:02;101370.44;;;20.52;100.00
23733;BME280;12047;53.450;-2.286;2023-09-30T22:45:04;101362.44;;;20.44;100.00
23733;BME280;12047;53.450;-2.286;2023-09-30T22:50:06;101368.81;;;20.57;100.00
23733;BME280;12047;53.450;-2.286;2023-09-30T22:55:15;101351.00;;;20.71;100.00
23733;BME280;12047;53.450;-2.286;2023-09-30T23:00:16;101358.56;;;20.82;100.00
23733;BME280;12047;53.450;-2.286;2023-09-30T23:05:19;101349.56;;;20.54;100.00
23733;BME280;12047;53.450;-2.286;2023-09-30T23:10:20;101357.34;;;20.49;100.00
23733;BME280;12047;53.450;-2.286;2023-09-30T23:15:21;101370.00;;;20.84;100.00
23733;BME280;12047;53.450;-2.286;2023-09-30T23:20:22;101375.03;;;21.09;100.00
23733;BME280;12047;53.450;-2.286;2023-09-30T23:25:24;101359.44;;;20.68;100.00
23733;BME280;12047;53.450;-2.286;2023-09-30T23:30:29;101365.84;;;20.67;100.00
23733;BME280;12047;53.450;-2.286;2023-09-30T23:35:29;101366.75;;;21.10;100.00
23733;BME280;12047;53.450;-2.286;2023-09-30T23:40:31;101369.78;;;21.00;100.00
23733;BME280;12047;53.450;-2.286;2023-09-30T23:45:36;101368.81;;;21.08;100.00
23733;BME280;12047;53.450;-2.286;2023-09-30T23:50:40;101367.00;;;20.94;100.00
23733;BME280;12047;53.450;-2.286;2023-09-30T23:55:42;101354.84;;;20.98;100.00
